Aérodrome :
LOGIN :

S'inscrire | Disclaimer

   EN    FR    IT 

 










Légende :    VFR   VFR Marginal   IFR   IFR Intensif   IFR Très Intensif
Visi : 
Plafond : 
>= 8 km
>= 3000ft
5 à 8 km
1000 à 3000 ft
1500m à 5 km
500 à 1000 ft
800 à 1500m
200 à 500 ft
< 800m
< 200 ft
Symboles :   Orages  Brouillard  Fortes neiges  Fortes précipitations  Vent > 20 kt
SIGMETs :   Divers  Orages  Givrage  Turbulence  Onde Orograph.  Cendres Volcan.






- Altitude de l'aérodrome : 779 ft
- Code IATA : CMF


LFLB - Chambery / Aix-Les-Bains

DERNIER METAR :
  • 272100Z AUTO 36016KT 9999 SCT048 BKN054 BKN064 08/M00 Q1015 TEMPO 35015G35KT 4000 SHRA BKN025TCU

METARs EXPIRÉS :
  • 272030Z AUTO 35024KT 9999 BKN046 OVC058 08/00 Q1015 BECMG 35010KT
  • 272000Z AUTO 01018G29KT 9999 FEW036 BKN049 08/02 Q1014 BECMG 35010KT
  • 271930Z AUTO 34017KT 320V020 9999 FEW035/// SCT041/// BKN098/// ///TCU 09/02 Q1013 BECMG BKN040
  • 271900Z AUTO VRB16KT 8000 -RA FEW030/// BKN035/// OVC041/// ///TCU 09/05 Q1012 TEMPO 35015G25KT 4000 SHRA BECMG BKN040
  • 271830Z AUTO VRB09KT 9999 BKN042/// BKN056/// BKN100/// ///TCU 08/05 Q1010 TEMPO 35015G25KT 4000 SHRA BECMG BKN040
  • 271800Z AUTO VRB10KT 9999 FEW009 BKN039 BKN049 07/05 Q1009 TEMPO 35015G25KT 4000 SHRA SCT025TCU

TAF AMD TAF LFLB
Valide du 27 à 20h jusqu'au 28 à 18h UTC


272039Z 2720/2818 35010KT 9999 BKN040
PROB40
TEMPO 2720/2723 35015G35KT 4000 SHRA BKN025TCU
BECMG 2801/2803 36003KT CAVOK
PROB30
TEMPO 2803/2808 3000 BR



MET'MAP, la Météo Aéronautique d'un coup d'oeil ! - Copyright ORBIFLY Décembre 2007 - Disclaimer

ORBIFLY MET'MAP TEAM :

Programmation & Développement : Alexandra Zaïnal
Sur une idée originale de : Baudouin d'Aumeries
Assistance à la programmation : Marc-Olivier Méhu
Soutien technique & logistique : Manuel Goepfert

Contact : metmap@orbifly.com




SOURCES & CREDITS :

   NOAA